createdAt,value
2022-08-22T10:11:32.581Z,41.33
2022-08-22T10:12:36.081Z,37.39
2022-08-22T10:14:37.472Z,34.84
2022-08-22T10:15:38.301Z,36.28
2022-08-22T10:16:38.287Z,35.50
2022-08-22T10:17:41.051Z,35.52
2022-08-22T10:18:43.871Z,36.22
2022-08-22T10:19:38.305Z,34.84
2022-08-22T10:20:38.296Z,37.47
2022-08-22T10:27:59.571Z,36.96
2022-08-22T10:29:00.534Z,36.16
2022-08-22T10:30:00.524Z,35.68
2022-08-22T10:31:00.511Z,37.05
2022-08-22T10:32:03.766Z,36.37
2022-08-22T10:33:00.818Z,36.49
2022-08-22T10:34:00.499Z,36.39
2022-08-22T10:35:00.464Z,37.50
2022-08-22T10:36:00.492Z,36.36
2022-08-22T10:37:00.438Z,36.75
2022-08-22T10:38:00.446Z,36.44
2022-08-22T10:39:00.415Z,36.05
2022-08-22T10:40:00.509Z,36.83
2022-08-22T10:41:00.391Z,37.30
2022-08-22T10:42:00.374Z,37.40
2022-08-22T10:43:00.460Z,36.90
2022-08-22T10:44:01.471Z,36.32
2022-08-22T10:45:00.336Z,36.95
2022-08-22T10:46:00.394Z,39.82
2022-08-22T10:47:00.350Z,38.24
2022-08-22T10:48:00.315Z,38.05
2022-08-22T10:49:00.294Z,39.26
2022-08-22T10:50:00.281Z,39.68
2022-08-22T10:51:00.268Z,39.76
2022-08-22T10:52:09.729Z,39.25
2022-08-22T10:53:00.537Z,40.08
2022-08-22T10:54:00.228Z,38.88
2022-08-22T10:55:00.221Z,37.50
2022-08-22T10:56:00.205Z,37.84
2022-08-22T10:57:00.192Z,38.34
2022-08-22T10:58:00.190Z,41.41
2022-08-22T10:59:00.450Z,40.13
2022-08-22T11:00:00.169Z,39.87
2022-08-22T11:01:00.239Z,41.09
2022-08-22T11:02:00.192Z,41.63
2022-08-22T11:03:00.363Z,41.04
2022-08-22T11:04:00.106Z,41.06
2022-08-22T11:05:00.145Z,41.97
2022-08-22T11:06:00.085Z,42.16
2022-08-22T11:07:00.071Z,40.98
2022-08-22T11:08:00.076Z,42.44
2022-08-22T11:09:00.042Z,43.13
2022-08-22T11:10:00.027Z,41.16
2022-08-22T11:11:00.018Z,41.47
2022-08-22T11:12:00.008Z,43.84
2022-08-22T11:13:00.205Z,44.91
2022-08-22T11:14:00.007Z,43.41
2022-08-22T11:14:59.979Z,42.89
2022-08-22T11:15:59.958Z,40.51
2022-08-22T11:17:00.676Z,40.41
2022-08-22T11:17:59.942Z,39.94
2022-08-22T11:19:02.058Z,41.71
2022-08-22T11:19:59.904Z,40.62
2022-08-22T11:20:59.894Z,40.86
2022-08-22T11:21:59.874Z,41.08
2022-08-22T11:22:59.992Z,41.57
2022-08-22T11:24:00.582Z,42.07
2022-08-22T11:25:03.719Z,42.07
2022-08-22T11:25:59.826Z,41.97
2022-08-22T11:26:59.830Z,45.60
2022-08-22T11:27:59.816Z,41.95
2022-08-22T11:29:02.886Z,42.05
2022-08-22T11:29:59.782Z,42.44
2022-08-22T11:30:59.764Z,42.26
2022-08-22T11:32:04.311Z,43.37
2022-08-22T11:33:00.060Z,42.70
2022-08-22T11:33:59.725Z,43.49
2022-08-22T11:34:59.714Z,43.39
2022-08-22T11:35:59.709Z,43.10
2022-08-22T11:36:59.687Z,44.28
2022-08-22T11:37:59.670Z,42.99
2022-08-22T11:38:59.687Z,43.29
2022-08-22T11:39:59.734Z,42.99
2022-08-22T11:40:59.657Z,43.29
2022-08-22T11:41:59.621Z,42.40
2022-08-22T11:43:00.076Z,44.16
2022-08-22T11:43:59.594Z,42.58
2022-08-22T11:44:59.592Z,42.48
2022-08-22T11:45:59.596Z,42.08
2022-08-22T11:46:59.564Z,44.36
2022-08-22T11:47:59.543Z,43.37
2022-08-22T11:48:59.532Z,45.32
2022-08-22T11:49:59.521Z,42.16
2022-08-22T11:50:59.572Z,42.34
2022-08-22T11:51:59.503Z,44.69
2022-08-22T11:52:59.484Z,42.00
2022-08-22T11:53:59.471Z,42.79
2022-08-22T11:54:59.503Z,45.34
2022-08-22T11:55:59.444Z,42.97
2022-08-22T11:56:59.447Z,42.87
2022-08-22T11:57:59.410Z,39.81
2022-08-22T11:58:59.405Z,41.59
2022-08-22T11:59:59.399Z,40.72
2022-08-22T12:00:59.386Z,42.10
2022-08-22T12:01:59.413Z,42.38
2022-08-22T12:02:59.499Z,39.12
2022-08-22T12:03:59.346Z,40.03
2022-08-22T12:04:59.325Z,41.39
2022-08-22T12:05:59.329Z,39.81
2022-08-22T12:06:59.304Z,40.78
2022-08-22T12:07:59.290Z,40.78
2022-08-22T12:08:59.274Z,40.96
2022-08-22T12:09:59.254Z,39.78
2022-08-22T12:10:59.259Z,39.28
2022-08-22T12:11:59.264Z,39.78
2022-08-22T12:13:00.759Z,38.99
2022-08-22T12:14:03.964Z,39.68
2022-08-22T12:14:59.205Z,39.28
2022-08-22T12:15:59.185Z,40.17
2022-08-22T12:16:59.189Z,40.09
2022-08-22T12:18:01.847Z,40.11
2022-08-22T12:18:59.143Z,41.30
2022-08-22T12:20:16.406Z,40.01
2022-08-22T12:20:59.129Z,41.09
2022-08-22T12:21:59.117Z,41.27
2022-08-22T12:22:59.089Z,41.30
2022-08-22T12:23:59.082Z,40.70
2022-08-22T12:25:02.753Z,41.89
2022-08-22T12:25:59.063Z,40.90
2022-08-22T12:26:59.042Z,40.90
2022-08-22T12:27:59.019Z,40.70
2022-08-22T12:28:59.010Z,41.20
2022-08-22T12:29:59.010Z,40.80
2022-08-22T12:30:59.008Z,40.62
2022-08-22T12:31:58.969Z,40.92
2022-08-22T12:32:59.096Z,41.41
2022-08-22T12:33:58.942Z,41.51
2022-08-22T12:34:58.946Z,43.09
2022-08-22T12:35:58.982Z,43.38
2022-08-22T12:36:58.906Z,42.89
2022-08-22T12:37:58.897Z,40.82
2022-08-22T12:38:58.880Z,42.40
2022-08-22T12:39:58.941Z,42.02
2022-08-22T12:40:58.868Z,41.14
2022-08-22T12:41:58.836Z,41.43
2022-08-22T12:42:58.832Z,42.93
2022-08-22T12:43:58.813Z,41.43
2022-08-22T12:44:58.799Z,42.82
2022-08-22T12:45:58.813Z,41.93
2022-08-22T12:46:58.785Z,40.35
2022-08-22T12:47:58.980Z,40.47
2022-08-22T12:48:58.765Z,42.74
2022-08-22T12:49:58.732Z,41.38
2022-08-22T12:50:59.712Z,40.98
2022-08-22T12:52:04.172Z,41.39
2022-08-22T12:52:58.703Z,42.19
2022-08-22T12:53:58.683Z,42.29
2022-08-22T12:54:58.687Z,43.74
2022-08-22T12:55:58.671Z,43.35
2022-08-22T12:56:58.645Z,42.07
2022-08-22T12:57:58.629Z,41.95
2022-08-22T12:58:58.701Z,42.64
2022-08-22T12:59:58.601Z,40.47
2022-08-22T13:00:58.628Z,40.27
2022-08-22T13:01:58.591Z,40.37
2022-08-22T13:02:58.763Z,40.48
2022-08-22T13:03:58.567Z,39.99
2022-08-22T13:04:58.542Z,40.19
2022-08-22T13:06:00.355Z,40.58
2022-08-22T13:06:58.525Z,41.08
2022-08-22T13:08:02.352Z,42.26
2022-08-22T13:08:58.499Z,40.48
2022-08-22T13:09:58.476Z,41.17
2022-08-22T13:10:58.482Z,40.98
2022-08-22T13:11:58.452Z,42.26
2022-08-22T13:12:58.443Z,42.26
2022-08-22T13:13:58.458Z,41.47
2022-08-22T13:14:58.415Z,41.89
2022-08-22T13:15:58.407Z,41.20
2022-08-22T13:16:58.404Z,41.99
2022-08-22T13:18:13.258Z,41.49
2022-08-22T13:18:58.373Z,41.30
2022-08-22T13:19:58.355Z,42.58
2022-08-22T13:20:58.357Z,42.36
2022-08-22T13:21:58.327Z,46.22
2022-08-22T13:22:58.317Z,43.23
2022-08-22T13:23:58.312Z,42.74
2022-08-22T13:24:58.282Z,41.06
2022-08-22T13:25:58.291Z,40.56
2022-08-22T13:26:58.266Z,40.86
2022-08-22T13:27:59.232Z,40.98
2022-08-22T13:29:15.539Z,40.98
2022-08-22T13:29:58.221Z,42.07
2022-08-22T13:30:58.205Z,41.08
2022-08-22T13:31:58.262Z,42.96
2022-08-22T13:32:58.183Z,42.36
2022-08-22T13:33:58.176Z,43.35
2022-08-22T13:34:58.220Z,41.65
2022-08-22T13:35:58.154Z,42.24
2022-08-22T13:36:58.175Z,42.54
2022-08-22T13:37:58.140Z,43.01
2022-08-22T13:38:58.109Z,42.42
2022-08-22T13:39:58.146Z,40.37
2022-08-22T13:40:58.104Z,40.27
2022-08-22T13:41:58.178Z,39.58
2022-08-22T13:42:58.052Z,40.17
2022-08-22T13:43:58.057Z,40.25
2022-08-22T13:44:58.054Z,38.77
2022-08-22T13:45:58.062Z,39.56
2022-08-22T13:47:13.835Z,39.46
2022-08-22T13:47:58.160Z,38.77
2022-08-22T13:49:01.014Z,39.65
2022-08-22T13:49:58.033Z,39.78
2022-08-22T13:50:58.015Z,41.04
2022-08-22T13:51:57.947Z,39.26
2022-08-22T13:52:57.932Z,39.46
2022-08-22T13:54:01.885Z,40.62
2022-08-22T13:54:58.016Z,39.15
2022-08-22T13:55:57.921Z,38.56
2022-08-22T13:56:57.890Z,38.14
2022-08-22T13:57:57.883Z,38.34
2022-08-22T13:58:57.836Z,38.85
2022-08-22T14:00:05.930Z,39.15
2022-08-22T14:00:58.106Z,38.34
2022-08-22T14:01:57.851Z,38.04
2022-08-22T14:02:57.812Z,38.93
2022-08-22T14:03:57.767Z,38.83
2022-08-22T14:04:57.811Z,37.85
2022-08-22T14:05:59.071Z,39.03
2022-08-22T14:06:57.739Z,40.23
2022-08-22T14:07:58.301Z,39.34
2022-08-22T14:08:57.708Z,38.37
2022-08-22T14:09:57.699Z,38.49
2022-08-22T14:10:57.806Z,38.89
2022-08-22T14:11:57.665Z,39.20
2022-08-22T14:12:57.678Z,40.09
2022-08-22T14:13:57.635Z,41.06
2022-08-22T14:14:57.637Z,40.27
2022-08-22T14:15:57.631Z,42.14
2022-08-22T14:16:57.634Z,41.46
2022-08-22T14:17:57.587Z,40.96
2022-08-22T14:18:57.580Z,40.66
2022-08-22T14:19:59.586Z,40.47
2022-08-22T14:20:57.576Z,40.15
2022-08-22T14:21:59.501Z,38.47
2022-08-22T14:23:01.023Z,37.78
2022-08-22T14:23:57.521Z,39.06
2022-08-22T14:24:57.510Z,40.25
2022-08-22T14:25:57.512Z,38.96
2022-08-22T14:26:57.906Z,38.56
2022-08-22T14:27:57.647Z,39.17
2022-08-22T14:28:57.454Z,39.17
2022-08-22T14:29:57.436Z,40.07
2022-08-22T14:31:00.760Z,39.28
2022-08-22T14:31:57.404Z,39.68
2022-08-22T14:32:57.399Z,39.28
2022-08-22T14:33:57.397Z,39.68
2022-08-22T14:34:57.380Z,39.48
2022-08-22T14:35:57.378Z,39.48
2022-08-22T14:36:57.348Z,42.05
2022-08-22T14:37:57.335Z,39.78
2022-08-22T14:38:57.331Z,40.37
2022-08-22T14:39:57.374Z,39.68
2022-08-22T14:40:57.315Z,38.98
2022-08-22T14:41:58.629Z,39.09
2022-08-22T14:42:57.275Z,39.28
2022-08-22T14:43:57.268Z,38.29
2022-08-22T14:44:57.240Z,38.59
2022-08-22T14:45:57.253Z,39.48
2022-08-22T14:46:57.223Z,40.17
2022-08-22T14:48:30.214Z,39.48
2022-08-22T14:48:57.196Z,38.49
2022-08-22T14:49:57.185Z,38.59
2022-08-22T14:50:57.190Z,40.35
2022-08-22T14:51:57.155Z,40.05
2022-08-22T14:52:57.175Z,39.26
2022-08-22T14:53:57.187Z,38.18
2022-08-22T14:54:57.131Z,39.17
2022-08-22T14:55:57.115Z,38.67
2022-08-22T14:56:57.094Z,38.96
2022-08-22T14:57:57.100Z,38.98
2022-08-22T14:58:57.065Z,39.97
2022-08-22T14:59:57.056Z,40.17
2022-08-22T15:00:57.054Z,40.07
2022-08-22T15:01:57.099Z,39.87
2022-08-22T15:02:57.010Z,39.79
2022-08-22T15:03:56.992Z,41.47
2022-08-22T15:04:57.010Z,40.78
2022-08-22T15:05:57.014Z,40.29
2022-08-22T15:06:57.817Z,40.07
2022-08-22T15:07:56.981Z,40.66
2022-08-22T15:08:56.943Z,39.65
2022-08-22T15:09:56.955Z,40.35
2022-08-22T15:10:56.926Z,38.96
2022-08-22T15:11:56.902Z,38.37
2022-08-22T15:12:56.883Z,40.35
2022-08-22T15:13:56.879Z,39.56
2022-08-22T15:14:56.855Z,38.67
2022-08-22T15:16:03.517Z,39.46
2022-08-22T15:16:56.836Z,40.64
2022-08-22T15:17:57.098Z,39.76
2022-08-22T15:18:56.806Z,43.70
2022-08-22T15:19:56.821Z,40.05
2022-08-22T15:20:56.793Z,40.94
2022-08-22T15:22:13.537Z,38.98
2022-08-22T15:22:56.751Z,38.79
2022-08-22T15:23:56.734Z,39.06
2022-08-22T15:24:56.726Z,41.53
2022-08-22T15:25:56.733Z,38.67
2022-08-22T15:26:56.694Z,41.14
2022-08-22T15:27:56.682Z,41.83
2022-08-22T15:28:56.681Z,40.64
2022-08-22T15:29:56.667Z,41.04
2022-08-22T15:30:56.657Z,40.94
2022-08-22T15:31:56.645Z,39.86
2022-08-22T15:32:56.700Z,40.84
2022-08-22T15:33:56.606Z,39.76
2022-08-22T15:34:56.601Z,40.33
2022-08-22T15:35:56.617Z,40.62
2022-08-22T15:36:56.562Z,41.78
2022-08-22T15:37:56.564Z,40.51
2022-08-22T15:38:56.541Z,40.70
2022-08-22T15:39:56.558Z,40.90
2022-08-22T15:40:56.556Z,38.93
2022-08-22T15:41:56.504Z,39.15
2022-08-22T15:42:56.487Z,38.75
2022-08-22T15:43:56.485Z,39.17
2022-08-22T15:44:56.460Z,40.15
2022-08-22T15:45:56.465Z,39.28
2022-08-22T15:46:56.465Z,39.38
2022-08-22T15:47:56.417Z,40.66
2022-08-22T15:48:56.403Z,39.28
2022-08-22T15:49:58.095Z,40.19
2022-08-22T15:50:56.388Z,40.78
2022-08-22T15:51:56.395Z,40.69
2022-08-22T15:52:59.653Z,41.46
2022-08-22T15:53:56.347Z,39.40
2022-08-22T15:54:57.091Z,40.09
2022-08-22T15:55:56.318Z,40.69
2022-08-22T15:56:56.321Z,40.58
2022-08-22T15:57:56.340Z,39.99
2022-08-22T15:58:56.268Z,39.30
2022-08-22T15:59:56.261Z,39.72
2022-08-22T16:00:56.258Z,41.08
2022-08-22T16:01:56.278Z,41.67
2022-08-22T16:02:56.302Z,42.16
2022-08-22T16:03:56.222Z,41.47
2022-08-22T16:04:56.190Z,42.56
2022-08-22T16:05:56.191Z,41.16
2022-08-22T16:06:56.198Z,40.48
2022-08-22T16:07:56.155Z,40.19
2022-08-22T16:08:56.136Z,40.78
2022-08-22T16:09:56.160Z,40.78
2022-08-22T16:10:56.118Z,42.16
2022-08-22T16:11:56.126Z,40.78
2022-08-22T16:12:56.094Z,41.08
2022-08-22T16:13:56.080Z,41.38
2022-08-22T16:14:56.061Z,40.19
2022-08-22T16:15:56.995Z,40.31
2022-08-22T16:16:56.060Z,40.21
2022-08-22T16:17:56.037Z,40.21
2022-08-22T16:18:56.009Z,40.90
2022-08-22T16:19:56.026Z,41.39
2022-08-22T16:20:55.981Z,40.80
2022-08-22T16:21:56.021Z,41.00
2022-08-22T16:22:55.964Z,40.61
2022-08-22T16:23:55.955Z,40.70
2022-08-22T16:24:56.099Z,41.89
2022-08-22T16:25:55.921Z,41.99
2022-08-22T16:26:55.926Z,41.59
2022-08-22T16:27:55.969Z,41.49
2022-08-22T16:28:58.610Z,41.89
2022-08-22T16:29:55.875Z,41.20
2022-08-22T16:30:55.874Z,41.79
2022-08-22T16:31:55.845Z,41.49
2022-08-22T16:32:55.828Z,41.49
2022-08-22T16:33:55.820Z,41.30
2022-08-22T16:34:56.055Z,42.38
2022-08-22T16:35:55.808Z,41.20
2022-08-22T16:36:55.778Z,41.10
2022-08-22T16:37:55.847Z,42.19
2022-08-22T16:38:55.781Z,41.89
2022-08-22T16:39:55.777Z,42.48
2022-08-22T16:40:55.739Z,41.69
2022-08-22T16:41:55.720Z,42.29
2022-08-22T16:42:55.699Z,41.99
2022-08-22T16:43:55.696Z,41.69
2022-08-22T16:44:55.688Z,42.88
2022-08-22T16:45:55.666Z,42.58
2022-08-22T16:46:55.651Z,42.88
2022-08-22T16:47:58.099Z,42.38
2022-08-22T16:48:55.628Z,41.39
2022-08-22T16:49:55.639Z,40.70
2022-08-22T16:50:55.598Z,41.39
2022-08-22T16:51:55.586Z,41.77
2022-08-22T16:52:55.571Z,41.67
2022-08-22T16:53:55.561Z,41.38
2022-08-22T16:54:55.560Z,41.87
2022-08-22T16:55:55.555Z,42.46
2022-08-22T16:56:55.541Z,42.07
2022-08-22T16:58:06.165Z,42.66
2022-08-22T16:59:01.035Z,42.36
2022-08-22T16:59:55.510Z,42.56
2022-08-22T17:00:57.858Z,43.05
2022-08-22T17:01:55.505Z,42.66
2022-08-22T17:02:55.445Z,42.68
2022-08-22T17:03:55.431Z,43.74
2022-08-22T17:04:55.433Z,43.87
2022-08-22T17:05:55.411Z,43.65
2022-08-22T17:06:55.399Z,43.47
2022-08-22T17:07:55.482Z,43.47
2022-08-22T17:08:55.365Z,43.47
2022-08-22T17:09:55.370Z,43.47
2022-08-22T17:10:55.341Z,43.57
2022-08-22T17:11:55.327Z,44.36
2022-08-22T17:12:55.307Z,45.25
2022-08-22T17:13:55.299Z,44.06
2022-08-22T17:14:55.301Z,44.36
2022-08-22T17:15:55.272Z,44.36
2022-08-22T17:16:55.257Z,44.38
2022-08-22T17:17:55.391Z,44.97
2022-08-22T17:18:55.250Z,44.28
2022-08-22T17:19:55.243Z,44.75
2022-08-22T17:20:55.212Z,44.97
2022-08-22T17:21:55.202Z,45.17
2022-08-22T17:22:55.182Z,44.09
2022-08-22T17:23:55.193Z,44.68
2022-08-22T17:24:55.180Z,45.57
2022-08-22T17:25:55.204Z,45.86
2022-08-22T17:26:55.357Z,44.48
2022-08-22T17:27:55.136Z,44.68
2022-08-22T17:28:55.099Z,44.87
2022-08-22T17:29:55.111Z,44.58
2022-08-22T17:30:55.073Z,44.48
2022-08-22T17:31:55.073Z,44.58
2022-08-22T17:32:59.215Z,44.70
2022-08-22T17:33:55.053Z,45.19
2022-08-22T17:34:55.042Z,45.98
2022-08-22T17:35:55.019Z,44.50
2022-08-22T17:36:55.019Z,44.50
2022-08-22T17:37:54.991Z,44.70
2022-08-22T17:38:54.980Z,45.39
2022-08-22T17:39:55.963Z,45.39
2022-08-22T17:40:55.649Z,45.51
2022-08-22T17:41:54.941Z,45.81
2022-08-22T17:42:54.922Z,46.30
2022-08-22T17:43:55.079Z,45.81
2022-08-22T17:44:55.058Z,46.20
2022-08-22T17:45:54.885Z,46.42
2022-08-22T17:46:54.881Z,47.31
2022-08-22T17:47:54.891Z,47.22
2022-08-22T17:48:54.840Z,47.12
2022-08-22T17:49:54.944Z,47.61
2022-08-22T17:50:54.846Z,47.91
2022-08-22T17:51:54.810Z,47.81
2022-08-22T17:52:54.785Z,48.23
2022-08-22T17:53:54.786Z,48.60
2022-08-22T17:54:54.796Z,47.53
2022-08-22T17:55:54.777Z,47.44
2022-08-22T17:57:05.465Z,47.71
2022-08-22T17:57:54.790Z,47.91
2022-08-22T17:58:54.707Z,47.81
2022-08-22T17:59:54.779Z,48.50
2022-08-22T18:00:54.820Z,47.93
2022-08-22T18:02:00.698Z,48.33
2022-08-22T18:02:54.712Z,48.72
2022-08-22T18:03:54.664Z,49.71
2022-08-22T18:04:54.668Z,49.32
2022-08-22T18:09:53.844Z,47.14
2022-08-22T18:10:54.776Z,46.64
2022-08-22T18:11:54.759Z,46.15
2022-08-22T18:12:54.804Z,46.15
2022-08-22T18:13:54.730Z,47.04
2022-08-22T18:14:54.737Z,46.25
2022-08-22T18:15:54.707Z,45.95
2022-08-22T18:16:54.697Z,45.78
2022-08-22T18:17:54.739Z,46.25
2022-08-22T18:18:54.661Z,46.67
2022-08-22T18:19:54.670Z,46.77
2022-08-22T18:20:54.644Z,46.37
2022-08-22T18:21:54.632Z,46.77
2022-08-22T18:22:54.645Z,45.97
2022-08-22T18:23:54.623Z,45.78
2022-08-22T18:24:54.610Z,46.57
2022-08-22T18:25:54.588Z,47.16
2022-08-22T18:26:54.574Z,46.27
2022-08-22T18:27:54.569Z,46.67
2022-08-22T18:28:54.534Z,46.97
2022-08-22T18:29:54.542Z,47.36
2022-08-22T18:30:54.524Z,47.56
2022-08-22T18:31:54.507Z,47.56
2022-08-22T18:32:54.541Z,47.86
2022-08-22T18:33:54.471Z,47.66
2022-08-22T18:34:54.832Z,47.96
2022-08-22T18:35:54.712Z,48.05
2022-08-22T18:36:55.341Z,47.75
2022-08-22T18:37:54.425Z,47.46
2022-08-22T18:38:54.409Z,48.38
2022-08-22T18:39:54.460Z,48.67
2022-08-22T18:40:54.380Z,48.27
2022-08-22T18:41:54.373Z,48.87
2022-08-22T18:42:54.493Z,48.57
2022-08-22T18:43:54.358Z,48.67
2022-08-22T18:44:54.357Z,48.67
2022-08-22T18:45:54.321Z,48.57
2022-08-22T18:46:54.297Z,49.46
2022-08-22T18:47:54.295Z,49.57
2022-08-22T18:49:14.638Z,49.37
2022-08-22T18:49:54.347Z,49.57
2022-08-22T18:50:54.265Z,49.57
2022-08-22T18:51:54.242Z,50.16
2022-08-22T18:52:56.001Z,49.86
2022-08-22T18:53:54.207Z,49.76
2022-08-22T18:54:54.215Z,49.49
2022-08-22T18:55:54.200Z,50.28
2022-08-22T18:56:54.166Z,49.88
2022-08-22T18:57:54.152Z,50.48
2022-08-22T18:59:05.284Z,50.68
2022-08-22T18:59:54.137Z,50.38
2022-08-22T19:00:54.146Z,51.37
2022-08-22T19:01:54.202Z,51.28
2022-08-22T19:03:00.758Z,51.18
2022-08-22T19:03:54.099Z,51.87
2022-08-22T19:04:54.058Z,51.50
2022-08-22T19:09:53.263Z,51.00
2022-08-22T19:10:54.232Z,50.70
2022-08-22T19:11:54.271Z,51.40
2022-08-22T19:12:54.326Z,52.00
2022-08-22T19:13:54.245Z,51.70
2022-08-22T19:14:54.262Z,51.89
2022-08-22T19:15:54.229Z,51.70
2022-08-22T19:16:54.211Z,51.79
2022-08-22T19:17:57.724Z,52.02
2022-08-22T19:18:54.221Z,52.12
2022-08-22T19:19:54.185Z,51.52
2022-08-22T19:20:54.165Z,51.52
2022-08-22T19:21:54.148Z,51.52
2022-08-22T19:22:54.199Z,51.72
2022-08-22T19:23:54.130Z,51.92
2022-08-22T19:24:54.130Z,52.61
2022-08-22T19:25:54.088Z,51.82
2022-08-22T19:26:54.080Z,51.92
2022-08-22T19:27:54.065Z,52.81
2022-08-22T19:28:54.071Z,52.42
2022-08-22T19:29:54.063Z,52.72
2022-08-22T19:30:54.056Z,52.51
2022-08-22T19:31:54.028Z,52.12
2022-08-22T19:32:54.058Z,52.72
2022-08-22T19:33:54.042Z,52.91
2022-08-22T19:34:53.999Z,53.04
2022-08-22T19:35:53.961Z,53.04
2022-08-22T19:36:53.956Z,53.44
2022-08-22T19:37:53.946Z,52.74
2022-08-22T19:38:53.934Z,53.63
2022-08-22T19:39:54.432Z,52.84
2022-08-22T19:40:53.905Z,53.33
2022-08-22T19:41:53.883Z,53.53
2022-08-22T19:42:53.889Z,53.26
2022-08-22T19:43:53.888Z,53.86
2022-08-22T19:44:53.862Z,53.36
2022-08-22T19:45:53.838Z,53.76
2022-08-22T19:46:53.827Z,53.26
2022-08-22T19:47:53.844Z,54.16
2022-08-22T19:48:53.820Z,54.16
2022-08-22T19:49:53.855Z,54.35
2022-08-22T19:50:53.768Z,54.75
2022-08-22T19:51:53.757Z,54.75
2022-08-22T19:52:53.746Z,54.06
2022-08-22T19:53:53.747Z,54.88
2022-08-22T19:54:53.739Z,54.68
2022-08-22T19:55:53.703Z,55.27
2022-08-22T19:56:53.720Z,55.18
2022-08-22T19:57:53.684Z,54.58
2022-08-22T19:58:53.656Z,54.97
2022-08-22T19:59:53.670Z,55.38
2022-08-22T20:00:53.970Z,55.18
2022-08-22T20:01:53.627Z,55.47
2022-08-22T20:02:53.617Z,55.50
2022-08-22T20:03:53.600Z,55.50
2022-08-22T20:04:53.623Z,55.80
2022-08-22T20:05:57.622Z,55.70
2022-08-22T20:06:53.564Z,56.10
2022-08-22T20:07:53.553Z,56.00
2022-08-22T20:08:53.535Z,55.80
2022-08-22T20:09:53.552Z,56.00
2022-08-22T20:10:53.515Z,55.80
2022-08-22T20:11:53.504Z,56.30
2022-08-22T20:12:53.525Z,56.70
2022-08-22T20:13:53.501Z,57.29
2022-08-22T20:14:53.465Z,56.59
2022-08-22T20:15:53.452Z,57.71
2022-08-22T20:16:53.425Z,57.42
2022-08-22T20:19:05.020Z,57.12
2022-08-22T20:20:53.390Z,57.02
2022-08-22T20:21:53.362Z,57.05
2022-08-22T20:22:53.352Z,57.05
2022-08-22T20:23:53.349Z,57.24
2022-08-22T20:24:53.349Z,57.24
2022-08-22T20:25:53.318Z,57.24
2022-08-22T20:27:12.877Z,57.45
2022-08-22T20:27:53.303Z,57.64
2022-08-22T20:28:53.282Z,58.24
2022-08-22T20:29:53.287Z,57.84
2022-08-22T20:30:53.273Z,58.04
2022-08-22T20:31:58.078Z,58.34
2022-08-22T20:32:53.246Z,57.54
2022-08-22T20:33:53.218Z,57.94
2022-08-22T20:34:53.225Z,58.14
2022-08-22T20:35:53.219Z,59.14
2022-08-22T20:37:15.789Z,59.44
2022-08-22T20:38:06.398Z,60.33
2022-08-22T20:38:55.606Z,60.86
2022-08-22T20:39:58.679Z,61.66
2022-08-22T20:40:56.345Z,62.35
2022-08-22T20:41:53.178Z,62.85
2022-08-22T20:42:53.103Z,63.15
2022-08-22T20:43:53.118Z,63.35
2022-08-22T20:45:16.913Z,64.04
2022-08-22T20:45:53.074Z,64.18
2022-08-22T20:46:53.427Z,64.48
2022-08-22T20:47:53.060Z,64.58
2022-08-22T20:48:53.046Z,64.78
2022-08-22T20:49:53.039Z,64.97
2022-08-22T20:50:53.030Z,64.58
2022-08-22T20:51:52.987Z,64.78
2022-08-22T20:52:54.839Z,64.48
2022-08-22T20:53:52.970Z,64.28
2022-08-22T20:54:52.953Z,64.58
2022-08-22T20:55:52.938Z,64.58
2022-08-22T20:56:53.909Z,64.87
2022-08-22T20:57:52.906Z,65.47
2022-08-22T20:58:52.916Z,64.78
2022-08-22T20:59:52.902Z,64.37
2022-08-22T21:00:52.962Z,64.58
2022-08-22T21:01:52.849Z,64.58
2022-08-22T21:02:52.876Z,64.67
2022-08-22T21:03:52.866Z,64.48
2022-08-22T21:04:53.077Z,64.28
2022-08-22T21:05:52.798Z,64.18
2022-08-22T21:06:52.895Z,64.28
2022-08-22T21:07:52.804Z,63.58
2022-08-22T21:08:52.799Z,63.98
2022-08-22T21:09:52.757Z,63.88
2022-08-22T21:10:52.984Z,63.68
2022-08-22T21:11:52.940Z,63.78
2022-08-22T21:12:52.735Z,64.18
2022-08-22T21:13:52.697Z,63.78
2022-08-22T21:14:52.696Z,63.98
2022-08-22T21:15:52.672Z,63.88
2022-08-22T21:16:52.680Z,63.98
2022-08-22T21:17:52.658Z,63.88
2022-08-22T21:18:52.687Z,63.88
2022-08-22T21:19:52.661Z,63.78
2022-08-22T21:20:52.618Z,63.88
2022-08-22T21:21:52.629Z,63.88
2022-08-22T21:22:52.595Z,63.58
2022-08-22T21:23:52.612Z,63.38
2022-08-22T21:24:52.562Z,63.68
2022-08-22T21:25:52.562Z,63.58
2022-08-22T21:26:52.546Z,63.48
2022-08-22T21:27:52.520Z,63.68
2022-08-22T21:28:52.525Z,63.68
2022-08-22T21:29:52.512Z,63.88
2022-08-22T21:30:52.519Z,64.07
2022-08-22T21:31:52.494Z,63.78
2022-08-22T21:32:55.992Z,64.37
2022-08-22T21:33:52.483Z,65.08
2022-08-22T21:34:52.431Z,65.37
2022-08-22T21:35:52.420Z,65.31
2022-08-22T21:36:52.416Z,65.41
2022-08-22T21:37:52.432Z,65.70
2022-08-22T21:38:52.398Z,65.91
2022-08-22T21:39:52.402Z,65.91
2022-08-22T21:40:52.363Z,65.31
2022-08-22T21:50:01.667Z,64.54
2022-08-22T21:51:02.630Z,64.64
2022-08-22T21:52:02.624Z,65.04
2022-08-22T21:53:02.624Z,65.34
2022-08-22T21:54:17.638Z,65.53
2022-08-22T21:55:02.611Z,65.64
2022-08-22T21:56:02.597Z,65.94
2022-08-22T21:57:02.568Z,65.94
2022-08-22T21:58:02.565Z,66.33
2022-08-22T21:59:02.557Z,66.36
2022-08-22T22:00:02.567Z,65.97
2022-08-22T22:01:02.609Z,66.27
2022-08-22T22:02:02.507Z,66.17
2022-08-22T22:03:02.864Z,66.36
2022-08-22T22:04:02.474Z,66.86
2022-08-22T22:05:02.456Z,67.00
2022-08-22T22:06:02.439Z,67.10
2022-08-22T22:07:02.432Z,67.90
2022-08-22T22:08:02.441Z,67.69
2022-08-22T22:09:02.409Z,67.69
2022-08-22T22:10:02.409Z,67.90
2022-08-22T22:11:02.375Z,68.13
2022-08-22T22:12:02.377Z,68.52
2022-08-22T22:13:02.797Z,68.73
2022-08-22T22:14:02.354Z,69.02
2022-08-22T22:15:02.329Z,69.13
2022-08-22T22:16:02.337Z,69.32
2022-08-22T22:17:02.313Z,69.43
2022-08-22T22:18:02.324Z,69.32
2022-08-22T22:19:02.282Z,69.53
2022-08-22T22:20:02.279Z,69.62
2022-08-22T22:21:02.241Z,70.03
2022-08-22T22:29:56.498Z,71.12
2022-08-22T22:30:57.481Z,71.16
2022-08-22T22:31:57.457Z,71.26
2022-08-22T22:32:57.470Z,71.26
2022-08-22T22:33:57.460Z,71.36
2022-08-22T22:34:57.430Z,71.36
2022-08-22T22:35:57.417Z,71.26
2022-08-22T22:36:57.417Z,71.16
2022-08-22T22:37:57.507Z,71.09
2022-08-22T22:38:57.371Z,70.79
2022-08-22T22:39:57.399Z,70.39
2022-08-22T22:40:57.328Z,70.29
2022-08-22T22:49:56.649Z,72.69
2022-08-22T22:50:57.633Z,72.59
2022-08-22T22:51:57.618Z,72.49
2022-08-22T22:52:57.615Z,72.49
2022-08-22T22:53:57.601Z,72.09
2022-08-22T22:54:57.565Z,72.09
2022-08-22T22:55:59.699Z,72.19
2022-08-22T22:56:58.667Z,72.09
2022-08-22T22:57:58.718Z,72.49
2022-08-22T22:59:00.789Z,72.39
2022-08-22T22:59:57.536Z,72.53
2022-08-22T23:00:57.593Z,72.83
2022-08-22T23:01:57.493Z,73.43
2022-08-22T23:02:57.491Z,73.53
2022-08-22T23:03:57.451Z,73.22
2022-08-22T23:04:57.453Z,73.43
2022-08-22T23:05:57.429Z,73.53
2022-08-22T23:06:57.427Z,73.53
2022-08-22T23:07:57.494Z,73.66
2022-08-22T23:08:57.392Z,73.76
2022-08-22T23:09:57.385Z,73.96
2022-08-22T23:10:57.364Z,74.06
2022-08-22T23:11:57.367Z,74.06
2022-08-22T23:12:57.385Z,74.37
2022-08-22T23:13:57.326Z,74.16
2022-08-22T23:14:57.322Z,73.86
2022-08-22T23:15:57.320Z,73.86
2022-08-22T23:16:57.282Z,73.70
2022-08-22T23:17:57.407Z,73.80
2022-08-22T23:18:57.255Z,73.90
2022-08-22T23:19:57.252Z,73.80
2022-08-22T23:20:57.264Z,73.90
2022-08-22T23:21:57.241Z,73.80
2022-08-22T23:22:57.226Z,74.50
2022-08-22T23:23:57.185Z,74.10
2022-08-22T23:24:57.218Z,73.90
2022-08-22T23:25:57.175Z,73.39
2022-08-22T23:26:57.193Z,74.50
2022-08-22T23:27:57.150Z,74.40
2022-08-22T23:28:57.162Z,74.20
2022-08-22T23:29:57.108Z,73.70
2022-08-22T23:30:57.117Z,73.93
2022-08-22T23:31:57.084Z,74.23
2022-08-22T23:32:57.113Z,74.54
2022-08-22T23:33:57.074Z,74.63
2022-08-22T23:34:57.056Z,74.73
2022-08-22T23:35:59.991Z,74.73
2022-08-22T23:36:57.044Z,74.73
2022-08-22T23:37:57.079Z,74.73
2022-08-22T23:38:57.012Z,74.73
2022-08-22T23:39:57.053Z,74.93
2022-08-22T23:40:56.986Z,74.93
2022-08-22T23:49:56.261Z,75.87
2022-08-22T23:50:57.257Z,75.87
2022-08-22T23:51:57.231Z,75.77
2022-08-22T23:52:57.276Z,75.60